createdAt,value
2023-07-21T00:00:16.804Z,8.48
2023-07-21T00:02:45.327Z,11.77
2023-07-21T00:05:16.418Z,13.07
2023-07-21T00:07:45.882Z,13.88
2023-07-21T00:10:14.438Z,13.35
2023-07-21T00:12:48.681Z,10.25
2023-07-21T00:15:19.154Z,9.25
2023-07-21T00:17:49.747Z,9.30
2023-07-21T00:20:23.666Z,9.95
2023-07-21T00:22:52.620Z,13.00
2023-07-21T00:25:21.191Z,9.40
2023-07-21T00:27:49.662Z,8.70
2023-07-21T00:30:22.793Z,9.10
2023-07-21T00:32:51.272Z,9.57
2023-07-21T00:35:21.004Z,10.43
2023-07-21T00:37:49.287Z,11.27
2023-07-21T00:40:20.407Z,10.93
2023-07-21T00:42:49.294Z,11.48
2023-07-21T00:45:18.592Z,13.43
2023-07-21T00:47:47.691Z,12.80
2023-07-21T00:50:18.208Z,10.00
2023-07-21T00:52:48.436Z,9.95
2023-07-21T00:55:17.572Z,16.45
2023-07-21T00:57:46.965Z,15.85
2023-07-21T01:00:16.448Z,13.20
2023-07-21T01:02:44.778Z,12.80
2023-07-21T01:05:13.709Z,12.90
2023-07-21T01:07:42.868Z,11.95
2023-07-21T01:10:15.099Z,11.57
2023-07-21T01:12:43.732Z,11.15
2023-07-21T01:15:12.465Z,11.98
2023-07-21T01:17:41.883Z,12.68
2023-07-21T01:20:12.520Z,13.75
2023-07-21T01:22:48.708Z,11.77
2023-07-21T01:25:20.326Z,12.82
2023-07-21T01:27:51.798Z,13.73
2023-07-21T01:30:23.412Z,13.52
2023-07-21T01:32:53.384Z,14.73
2023-07-21T01:35:23.241Z,17.88
2023-07-21T01:37:52.200Z,13.95
2023-07-21T01:40:22.365Z,11.75
2023-07-21T01:42:52.927Z,14.57
2023-07-21T01:45:21.839Z,14.00
2023-07-21T01:47:50.500Z,12.48
2023-07-21T01:50:20.427Z,11.85
2023-07-21T01:52:49.604Z,12.65
2023-07-21T01:55:25.212Z,13.50
2023-07-21T01:57:57.955Z,15.43
2023-07-21T02:00:38.008Z,16.33
2023-07-21T02:03:15.570Z,14.00
2023-07-21T02:05:43.900Z,11.55
2023-07-21T02:08:12.068Z,14.00
2023-07-21T02:10:43.726Z,11.93
2023-07-21T02:13:12.895Z,12.73
2023-07-21T02:15:41.336Z,11.27
2023-07-21T02:18:09.839Z,10.57
2023-07-21T02:20:38.052Z,10.00
2023-07-21T02:23:06.582Z,9.60
2023-07-21T02:25:35.054Z,8.88
2023-07-21T02:28:04.981Z,12.30
2023-07-21T02:30:33.564Z,13.57
2023-07-21T02:33:02.023Z,13.23
2023-07-21T02:35:30.254Z,13.90
2023-07-21T02:38:01.718Z,10.90
2023-07-21T02:40:30.196Z,12.35
2023-07-21T02:42:58.347Z,15.15
2023-07-21T02:45:27.991Z,14.50
2023-07-21T02:47:56.541Z,14.25
2023-07-21T02:50:25.414Z,20.02
2023-07-21T02:52:54.051Z,22.40
2023-07-21T02:55:22.631Z,19.73
2023-07-21T02:57:50.890Z,19.65
2023-07-21T03:00:19.396Z,20.88
2023-07-21T03:02:49.175Z,17.63
2023-07-21T03:05:17.719Z,16.80
2023-07-21T03:07:46.006Z,15.10
2023-07-21T03:10:14.305Z,13.80
2023-07-21T03:12:42.505Z,14.45
2023-07-21T03:15:11.656Z,16.58
2023-07-21T03:17:40.107Z,15.50
2023-07-21T03:20:13.425Z,22.00
2023-07-21T03:22:42.090Z,20.38
2023-07-21T03:25:11.747Z,24.85
2023-07-21T03:27:40.481Z,21.98
2023-07-21T03:30:11.001Z,20.65
2023-07-21T03:32:39.388Z,20.17
2023-07-21T03:35:10.155Z,20.40
2023-07-21T03:37:38.837Z,23.02
2023-07-21T03:40:08.873Z,20.40
2023-07-21T03:42:37.663Z,22.85
2023-07-21T03:45:06.906Z,21.60
2023-07-21T03:47:35.520Z,22.73
2023-07-21T03:50:04.199Z,22.70
2023-07-21T03:52:34.235Z,24.00
2023-07-21T03:55:02.546Z,19.75
2023-07-21T03:57:30.699Z,22.83
2023-07-21T03:59:59.283Z,25.58
2023-07-21T04:02:27.707Z,23.88
2023-07-21T04:04:55.123Z,26.05
2023-07-21T04:07:24.390Z,26.33
2023-07-21T04:09:57.241Z,26.90
2023-07-21T04:12:25.679Z,22.83
2023-07-21T04:14:53.863Z,25.10
2023-07-21T04:17:22.055Z,28.90
2023-07-21T04:19:50.366Z,23.40
2023-07-21T04:22:18.712Z,21.73
2023-07-21T04:24:47.517Z,27.42
2023-07-21T04:27:17.937Z,25.73
2023-07-21T04:29:46.151Z,23.83
2023-07-21T04:32:15.244Z,26.33
2023-07-21T04:34:44.178Z,24.80
2023-07-21T04:37:13.427Z,24.45
2023-07-21T04:39:41.784Z,22.95
2023-07-21T04:42:10.706Z,21.73
2023-07-21T04:44:40.296Z,20.27
2023-07-21T04:47:08.984Z,23.17
2023-07-21T04:49:37.697Z,26.25
2023-07-21T04:52:06.578Z,24.95
2023-07-21T04:54:35.531Z,20.58
2023-07-21T04:57:04.052Z,29.80
2023-07-21T04:59:32.265Z,31.25
2023-07-21T05:02:01.802Z,28.92
2023-07-21T05:04:30.280Z,27.20
2023-07-21T05:06:58.810Z,25.63
2023-07-21T05:09:27.088Z,25.38
2023-07-21T05:11:55.382Z,29.00
2023-07-21T05:14:23.737Z,29.42
2023-07-21T05:16:51.949Z,26.73
2023-07-21T05:19:21.708Z,27.98
2023-07-21T05:21:49.938Z,27.73
2023-07-21T05:24:18.162Z,27.08
2023-07-21T05:26:47.803Z,28.98
2023-07-21T05:29:16.387Z,25.65
2023-07-21T05:31:47.059Z,28.42
2023-07-21T05:34:15.461Z,26.05
2023-07-21T05:36:45.276Z,29.73
2023-07-21T05:39:13.674Z,26.95
2023-07-21T05:41:42.175Z,29.55
2023-07-21T05:44:13.724Z,25.48
2023-07-21T05:46:42.091Z,26.65
2023-07-21T05:49:11.251Z,27.65
2023-07-21T05:51:39.653Z,28.70
2023-07-21T05:54:09.749Z,30.25
2023-07-21T05:56:38.543Z,28.73
2023-07-21T05:59:07.409Z,29.70
2023-07-21T06:01:37.599Z,27.58
2023-07-21T06:04:07.238Z,26.83
2023-07-21T06:06:35.710Z,26.52
2023-07-21T06:09:04.828Z,26.38
2023-07-21T06:11:34.643Z,24.30
2023-07-21T06:14:02.840Z,22.63
2023-07-21T06:16:31.769Z,23.20
2023-07-21T06:19:01.707Z,22.10
2023-07-21T06:21:30.090Z,21.30
2023-07-21T06:23:58.601Z,22.00
2023-07-21T06:26:27.164Z,20.02
2023-07-21T06:28:57.927Z,21.25
2023-07-21T06:31:26.587Z,20.00
2023-07-21T06:33:55.005Z,21.40
2023-07-21T06:36:23.256Z,20.42
2023-07-21T06:38:51.683Z,19.73
2023-07-21T06:41:20.862Z,19.58
2023-07-21T06:43:49.098Z,20.73
2023-07-21T06:46:18.805Z,20.60
2023-07-21T06:48:47.211Z,20.77
2023-07-21T06:51:15.358Z,20.02
2023-07-21T06:53:43.885Z,19.13
2023-07-21T06:56:14.794Z,19.08
2023-07-21T06:58:44.727Z,18.40
2023-07-21T07:01:13.012Z,18.95
2023-07-21T07:03:43.254Z,18.85
2023-07-21T07:06:12.724Z,16.63
2023-07-21T07:08:41.073Z,16.02
2023-07-21T07:11:09.837Z,14.73
2023-07-21T07:13:38.073Z,15.27
2023-07-21T07:16:06.873Z,12.90
2023-07-21T07:18:35.435Z,14.18
2023-07-21T07:21:05.334Z,12.02
2023-07-21T07:23:33.847Z,15.23
2023-07-21T07:26:03.272Z,13.73
2023-07-21T07:28:31.927Z,13.45
2023-07-21T07:31:05.463Z,15.07
2023-07-21T07:36:02.442Z,14.70
2023-07-21T07:38:32.922Z,15.60
2023-07-21T07:41:06.743Z,14.00
2023-07-21T07:43:35.497Z,14.10
2023-07-21T07:46:05.161Z,14.70
2023-07-21T07:48:34.990Z,13.70
2023-07-21T07:51:05.645Z,14.45
2023-07-21T07:53:36.391Z,13.60
2023-07-21T07:56:05.582Z,13.00
2023-07-21T07:58:34.531Z,15.35
2023-07-21T08:01:05.777Z,15.75
2023-07-21T08:03:34.702Z,15.57
2023-07-21T08:06:03.258Z,13.55
2023-07-21T08:08:31.545Z,15.60
2023-07-21T08:11:04.539Z,15.48
2023-07-21T08:13:32.823Z,15.73
2023-07-21T08:16:01.287Z,15.45
2023-07-21T08:18:30.147Z,16.92
2023-07-21T08:20:58.319Z,16.63
2023-07-21T08:23:30.099Z,16.13
2023-07-21T08:26:00.562Z,15.98
2023-07-21T08:28:29.018Z,15.52
2023-07-21T08:30:59.830Z,15.57
2023-07-21T08:33:29.117Z,17.55
2023-07-21T08:35:57.371Z,14.90
2023-07-21T08:38:26.370Z,16.77
2023-07-21T08:41:02.562Z,17.15
2023-07-21T08:43:32.640Z,13.38
2023-07-21T08:46:03.464Z,14.63
2023-07-21T08:48:33.095Z,16.05
2023-07-21T08:51:01.628Z,15.32
2023-07-21T08:53:30.322Z,17.83
2023-07-21T08:56:00.382Z,15.13
2023-07-21T08:58:29.609Z,15.10
2023-07-21T09:00:59.910Z,13.48
2023-07-21T09:03:30.031Z,12.50
2023-07-21T09:05:59.421Z,9.75
2023-07-21T09:08:29.973Z,8.63
2023-07-21T09:11:01.728Z,8.40
2023-07-21T09:13:32.110Z,6.43
2023-07-21T09:16:03.584Z,6.80
2023-07-21T09:18:33.638Z,5.47
2023-07-21T09:21:01.903Z,5.25
2023-07-21T09:23:31.283Z,5.13
2023-07-21T09:26:02.003Z,5.28
2023-07-21T09:28:44.115Z,3.67
2023-07-21T09:31:16.507Z,3.83
2023-07-21T09:33:46.164Z,4.00
2023-07-21T09:36:16.586Z,4.20
2023-07-21T09:38:46.437Z,3.90
2023-07-21T09:41:17.024Z,3.80
2023-07-21T09:43:45.436Z,4.35
2023-07-21T09:46:18.425Z,4.32
2023-07-21T09:48:48.447Z,3.47
2023-07-21T09:51:19.640Z,3.50
2023-07-21T09:53:47.974Z,3.70
2023-07-21T09:56:17.496Z,3.78
2023-07-21T09:58:52.257Z,4.80
2023-07-21T10:01:22.610Z,4.18
2023-07-21T10:03:51.455Z,5.38
2023-07-21T10:06:20.678Z,5.55
2023-07-21T10:08:49.637Z,4.82
2023-07-21T10:11:17.980Z,5.13
2023-07-21T10:13:49.011Z,6.65
2023-07-21T10:16:22.412Z,6.50
2023-07-21T10:21:52.681Z,7.90
2023-07-21T10:24:26.423Z,6.78
2023-07-21T10:26:58.352Z,7.63
2023-07-21T10:29:26.638Z,6.75
2023-07-21T10:31:55.794Z,7.97
2023-07-21T10:34:32.975Z,7.85
2023-07-21T10:37:04.519Z,9.38
2023-07-21T10:39:34.989Z,9.23
2023-07-21T10:42:05.692Z,7.25
2023-07-21T10:44:36.383Z,12.40
2023-07-21T10:47:06.775Z,11.60
2023-07-21T10:49:37.084Z,14.23
2023-07-21T10:52:05.797Z,14.57
2023-07-21T10:54:34.594Z,14.52
2023-07-21T10:57:03.286Z,12.55
2023-07-21T10:59:34.390Z,13.05
2023-07-21T11:02:04.358Z,9.60
2023-07-21T11:04:33.235Z,9.90
2023-07-21T11:07:03.115Z,9.50
2023-07-21T11:09:36.417Z,8.70
2023-07-21T11:12:06.535Z,9.25
2023-07-21T11:14:34.752Z,9.48
2023-07-21T11:17:05.295Z,7.50
2023-07-21T11:19:36.323Z,7.47
2023-07-21T11:22:08.602Z,6.85
2023-07-21T11:24:37.174Z,6.55
2023-07-21T11:27:10.854Z,7.38
2023-07-21T11:29:42.081Z,8.30
2023-07-21T11:32:20.219Z,7.40
2023-07-21T11:34:56.173Z,7.32
2023-07-21T11:37:26.218Z,7.90
2023-07-21T11:39:59.031Z,7.40
2023-07-21T11:44:56.105Z,7.05
2023-07-21T11:47:25.457Z,8.23
2023-07-21T11:49:57.189Z,9.02
2023-07-21T11:52:28.860Z,9.05
2023-07-21T11:54:59.354Z,8.95
2023-07-21T11:57:29.373Z,8.32
2023-07-21T11:59:57.762Z,7.00
2023-07-21T12:02:26.538Z,6.55
2023-07-21T12:04:54.958Z,5.85
2023-07-21T12:07:23.876Z,6.68
2023-07-21T12:09:53.764Z,6.20
2023-07-21T12:12:22.643Z,5.70
2023-07-21T12:14:51.271Z,6.07
2023-07-21T12:17:22.970Z,6.38
2023-07-21T12:19:51.926Z,5.95
2023-07-21T12:22:20.486Z,5.63
2023-07-21T12:24:48.742Z,5.45
2023-07-21T12:27:19.573Z,5.65
2023-07-21T12:29:48.389Z,5.47
2023-07-21T12:32:17.240Z,5.50
2023-07-21T12:34:45.936Z,5.65
2023-07-21T12:37:15.005Z,5.95
2023-07-21T12:39:43.286Z,5.68
2023-07-21T12:42:11.708Z,5.32
2023-07-21T12:44:41.554Z,5.00
2023-07-21T12:47:10.695Z,5.63
2023-07-21T12:49:40.080Z,5.88
2023-07-21T12:52:09.057Z,6.50
2023-07-21T12:54:37.176Z,6.30
2023-07-21T12:57:06.188Z,6.22
2023-07-21T12:59:34.370Z,5.78
2023-07-21T13:02:04.313Z,5.15
2023-07-21T13:04:32.761Z,5.10
2023-07-21T13:07:01.716Z,5.07
2023-07-21T13:09:30.250Z,5.50
2023-07-21T13:11:58.938Z,5.00
2023-07-21T13:14:27.250Z,5.45
2023-07-21T13:16:55.734Z,5.53
2023-07-21T13:19:26.161Z,6.32
2023-07-21T13:21:55.192Z,5.68
2023-07-21T13:24:24.395Z,6.50
2023-07-21T13:26:52.839Z,5.78
2023-07-21T13:29:21.109Z,6.35
2023-07-21T13:31:49.553Z,6.10
2023-07-21T13:34:19.476Z,5.93
2023-07-21T13:36:49.022Z,6.22
2023-07-21T13:39:18.265Z,5.88
2023-07-21T13:41:48.930Z,5.90
2023-07-21T13:44:17.244Z,6.07
2023-07-21T13:46:45.870Z,5.82
2023-07-21T13:49:14.192Z,5.97
2023-07-21T13:51:42.379Z,5.47
2023-07-21T13:54:14.356Z,4.82
2023-07-21T13:56:42.840Z,5.20
2023-07-21T13:59:11.011Z,4.78
2023-07-21T14:01:39.475Z,4.80
2023-07-21T14:04:07.929Z,5.03
2023-07-21T14:06:38.634Z,4.75
2023-07-21T14:09:08.839Z,4.85
2023-07-21T14:11:39.368Z,5.25
2023-07-21T14:14:08.391Z,5.03
2023-07-21T14:16:36.881Z,5.25
2023-07-21T14:19:05.713Z,5.15
2023-07-21T14:21:35.137Z,5.05
2023-07-21T14:24:06.156Z,4.93
2023-07-21T14:26:35.486Z,5.30
2023-07-21T14:29:05.271Z,4.97
2023-07-21T14:31:37.428Z,4.90
2023-07-21T14:34:05.755Z,5.10
2023-07-21T14:36:34.219Z,5.05
2023-07-21T14:39:03.833Z,5.10
2023-07-21T14:41:33.624Z,5.07
2023-07-21T14:44:02.560Z,4.88
2023-07-21T14:46:32.520Z,5.13
2023-07-21T14:49:01.824Z,4.50
2023-07-21T14:51:30.419Z,4.95
2023-07-21T14:53:59.168Z,5.60
2023-07-21T14:56:27.722Z,5.68
2023-07-21T14:58:56.075Z,5.40
2023-07-21T15:01:24.594Z,5.13
2023-07-21T15:03:54.857Z,5.10
2023-07-21T15:06:23.246Z,5.00
2023-07-21T15:08:51.685Z,4.70
2023-07-21T15:11:20.549Z,4.60
2023-07-21T15:13:49.076Z,3.88
2023-07-21T15:16:17.668Z,3.72
2023-07-21T15:18:45.894Z,3.78
2023-07-21T15:21:15.948Z,4.20
2023-07-21T15:23:44.579Z,3.88
2023-07-21T15:26:12.766Z,4.30
2023-07-21T15:28:40.975Z,4.40
2023-07-21T15:31:10.718Z,4.00
2023-07-21T15:33:39.084Z,4.00
2023-07-21T15:36:07.388Z,4.00
2023-07-21T15:38:37.919Z,4.18
2023-07-21T15:41:06.122Z,4.22
2023-07-21T15:43:34.265Z,4.47
2023-07-21T15:46:02.933Z,4.30
2023-07-21T15:48:31.832Z,4.13
2023-07-21T15:51:00.036Z,4.35
2023-07-21T15:53:28.323Z,4.13
2023-07-21T15:55:57.992Z,3.80
2023-07-21T15:58:26.190Z,4.05
2023-07-21T16:01:00.743Z,4.20
2023-07-21T16:03:29.227Z,4.20
2023-07-21T16:05:57.978Z,4.05
2023-07-21T16:08:28.196Z,4.47
2023-07-21T16:11:00.036Z,4.10
2023-07-21T16:13:28.247Z,3.95
2023-07-21T16:15:56.495Z,4.68
2023-07-21T16:18:25.072Z,4.38
2023-07-21T16:20:53.402Z,4.38
2023-07-21T16:23:21.673Z,4.55
2023-07-21T16:25:50.069Z,4.93
2023-07-21T16:28:20.008Z,5.00
2023-07-21T16:30:48.337Z,4.80
2023-07-21T16:33:16.608Z,4.63
2023-07-21T16:35:44.870Z,4.93
2023-07-21T16:38:13.093Z,5.10
2023-07-21T16:40:41.329Z,5.57
2023-07-21T16:43:09.783Z,5.95
2023-07-21T16:45:43.639Z,5.93
2023-07-21T16:48:12.111Z,5.60
2023-07-21T16:50:40.939Z,6.13
2023-07-21T16:53:09.499Z,5.72
2023-07-21T16:55:37.778Z,6.18
2023-07-21T16:58:05.891Z,6.80
2023-07-21T17:00:34.705Z,6.35
2023-07-21T17:03:05.313Z,6.18
2023-07-21T17:05:35.782Z,6.32
2023-07-21T17:08:05.352Z,6.75
2023-07-21T17:10:33.561Z,7.05
2023-07-21T17:13:02.439Z,6.53
2023-07-21T17:15:30.937Z,6.35
2023-07-21T17:18:00.610Z,6.50
2023-07-21T17:20:30.670Z,6.57
2023-07-21T17:22:59.197Z,7.00
2023-07-21T17:25:28.906Z,6.88
2023-07-21T17:27:57.664Z,6.85
2023-07-21T17:30:25.985Z,7.10
2023-07-21T17:32:54.223Z,7.68
2023-07-21T17:35:23.118Z,7.20
2023-07-21T17:37:52.788Z,7.13
2023-07-21T17:40:21.047Z,7.88
2023-07-21T17:42:50.330Z,8.30
2023-07-21T17:45:19.490Z,7.78
2023-07-21T17:47:47.857Z,7.80
2023-07-21T17:50:16.398Z,8.30
2023-07-21T17:52:45.100Z,7.18
2023-07-21T17:55:15.846Z,8.27
2023-07-21T17:57:44.329Z,8.02
2023-07-21T18:00:15.069Z,7.70
2023-07-21T18:02:43.737Z,8.32
2023-07-21T18:05:12.777Z,8.15
2023-07-21T18:07:42.289Z,7.60
2023-07-21T18:10:11.427Z,7.95
2023-07-21T18:12:42.369Z,8.90
2023-07-21T18:15:11.154Z,8.73
2023-07-21T18:17:39.896Z,9.38
2023-07-21T18:20:11.043Z,8.38
2023-07-21T18:22:39.973Z,8.93
2023-07-21T18:25:12.024Z,9.10
2023-07-21T18:27:42.433Z,9.20
2023-07-21T18:30:12.333Z,8.55
2023-07-21T18:32:40.760Z,8.75
2023-07-21T18:35:09.776Z,8.75
2023-07-21T18:37:38.467Z,8.95
2023-07-21T18:40:15.635Z,8.95
2023-07-21T18:42:52.482Z,8.82
2023-07-21T18:45:21.224Z,8.57
2023-07-21T18:47:50.350Z,9.35
2023-07-21T18:50:21.796Z,9.43
2023-07-21T18:52:50.970Z,9.10
2023-07-21T18:55:19.758Z,9.00
2023-07-21T18:57:50.899Z,8.30
2023-07-21T19:00:19.096Z,8.38
2023-07-21T19:02:47.786Z,8.00
2023-07-21T19:05:16.890Z,8.38
2023-07-21T19:07:45.353Z,8.77
2023-07-21T19:10:14.047Z,8.32
2023-07-21T19:12:42.490Z,8.93
2023-07-21T19:15:13.445Z,8.75
2023-07-21T19:17:42.424Z,8.32
2023-07-21T19:20:12.564Z,8.90
2023-07-21T19:22:41.010Z,9.30
2023-07-21T19:25:10.127Z,8.30
2023-07-21T19:27:40.168Z,9.13
2023-07-21T19:30:09.650Z,8.45
2023-07-21T19:32:43.087Z,9.02
2023-07-21T19:35:11.902Z,9.35
2023-07-21T19:37:41.742Z,8.55
2023-07-21T19:40:12.406Z,8.77
2023-07-21T19:42:40.643Z,7.65
2023-07-21T19:45:11.786Z,8.40
2023-07-21T19:47:41.830Z,8.57
2023-07-21T19:50:10.858Z,8.90
2023-07-21T19:52:39.097Z,9.10
2023-07-21T19:55:08.192Z,9.25
2023-07-21T19:57:36.434Z,9.90
2023-07-21T20:00:05.920Z,13.43
2023-07-21T20:02:35.130Z,12.20
2023-07-21T20:05:05.081Z,12.35
2023-07-21T20:07:33.221Z,11.13
2023-07-21T20:10:01.600Z,11.70
2023-07-21T20:12:29.848Z,11.60
2023-07-21T20:14:58.133Z,10.73
2023-07-21T20:17:26.748Z,9.77
2023-07-21T20:19:55.025Z,9.93
2023-07-21T20:22:24.841Z,9.75
2023-07-21T20:24:53.340Z,10.43
2023-07-21T20:27:21.584Z,10.48
2023-07-21T20:29:49.902Z,10.52
2023-07-21T20:32:18.513Z,10.25
2023-07-21T20:34:46.809Z,10.70
2023-07-21T20:37:15.091Z,10.23
2023-07-21T20:39:45.097Z,10.20
2023-07-21T20:42:13.382Z,10.60
2023-07-21T20:44:42.434Z,9.77
2023-07-21T20:47:11.021Z,9.77
2023-07-21T20:49:39.197Z,9.57
2023-07-21T20:52:08.550Z,10.40
2023-07-21T20:54:37.061Z,10.23
2023-07-21T20:57:07.129Z,9.73
2023-07-21T20:59:39.783Z,9.10
2023-07-21T21:02:15.112Z,9.93
2023-07-21T21:04:43.405Z,9.02
2023-07-21T21:07:12.809Z,9.57
2023-07-21T21:09:41.093Z,10.23
2023-07-21T21:12:11.579Z,10.10
2023-07-21T21:14:39.993Z,9.23
2023-07-21T21:17:08.616Z,10.05
2023-07-21T21:19:36.987Z,9.43
2023-07-21T21:22:05.422Z,10.48
2023-07-21T21:24:33.636Z,9.93
2023-07-21T21:27:01.940Z,9.80
2023-07-21T21:29:31.795Z,9.68
2023-07-21T21:32:00.084Z,9.77
2023-07-21T21:34:28.454Z,9.40
2023-07-21T21:36:57.261Z,9.63
2023-07-21T21:39:25.782Z,9.98
2023-07-21T21:41:54.089Z,9.25
2023-07-21T21:44:22.623Z,9.75
2023-07-21T21:46:52.242Z,9.07
2023-07-21T21:49:20.673Z,9.05
2023-07-21T21:51:48.944Z,10.02
2023-07-21T21:54:17.318Z,9.52
2023-07-21T21:56:45.860Z,9.55
2023-07-21T21:59:14.306Z,9.57
2023-07-21T22:01:42.648Z,10.55
2023-07-21T22:04:12.641Z,12.15
2023-07-21T22:06:40.876Z,11.88
2023-07-21T22:09:09.107Z,13.40
2023-07-21T22:11:37.534Z,12.57
2023-07-21T22:14:06.079Z,11.75
2023-07-21T22:16:34.600Z,11.80
2023-07-21T22:19:02.976Z,10.80
2023-07-21T22:21:32.774Z,10.77
2023-07-21T22:24:01.050Z,10.05
2023-07-21T22:26:29.551Z,9.57
2023-07-21T22:28:58.025Z,9.98
2023-07-21T22:31:26.279Z,9.60
2023-07-21T22:33:56.448Z,10.40
2023-07-21T22:36:24.913Z,10.52
2023-07-21T22:38:54.796Z,10.38
2023-07-21T22:41:23.194Z,10.45
2023-07-21T22:43:51.749Z,10.23
2023-07-21T22:46:20.093Z,10.35
2023-07-21T22:48:48.582Z,10.93
2023-07-21T22:51:17.185Z,9.93
2023-07-21T22:53:45.782Z,9.98
2023-07-21T22:56:17.346Z,10.88
2023-07-21T22:58:45.712Z,9.90
2023-07-21T23:01:13.950Z,9.73
2023-07-21T23:03:42.481Z,10.77
2023-07-21T23:06:10.715Z,10.30
2023-07-21T23:08:38.886Z,10.45
2023-07-21T23:11:07.209Z,10.82
2023-07-21T23:13:36.870Z,10.27
2023-07-21T23:16:05.393Z,11.00
2023-07-21T23:18:33.980Z,10.45
2023-07-21T23:21:02.364Z,11.55
2023-07-21T23:23:31.360Z,10.90
2023-07-21T23:26:01.950Z,11.40
2023-07-21T23:28:30.243Z,11.27
2023-07-21T23:31:05.220Z,10.98
2023-07-21T23:33:33.836Z,11.23
2023-07-21T23:36:02.295Z,10.60
2023-07-21T23:38:30.716Z,10.52
2023-07-21T23:40:59.392Z,10.93
2023-07-21T23:43:28.082Z,10.35
2023-07-21T23:45:59.650Z,10.57
2023-07-21T23:48:30.477Z,11.63
2023-07-21T23:50:58.922Z,10.80
2023-07-21T23:53:27.108Z,10.00
2023-07-21T23:55:55.641Z,10.98
2023-07-21T23:58:24.100Z,10.40
